sensor_id;sensor_type;location;lat;lon;timestamp;P1;durP1;ratioP1;P2;durP2;ratioP2
20739;SDS011;10530;49.968;19.844;2024-02-16T00:04:31;27.77;;;12.43;;
20739;SDS011;10530;49.968;19.844;2024-02-16T00:09:34;27.88;;;12.55;;
20739;SDS011;10530;49.968;19.844;2024-02-16T00:14:37;32.90;;;13.37;;
20739;SDS011;10530;49.968;19.844;2024-02-16T00:19:41;36.72;;;14.15;;
20739;SDS011;10530;49.968;19.844;2024-02-16T00:24:44;31.92;;;12.95;;
20739;SDS011;10530;49.968;19.844;2024-02-16T00:29:47;31.67;;;13.70;;
20739;SDS011;10530;49.968;19.844;2024-02-16T00:34:51;34.70;;;13.20;;
20739;SDS011;10530;49.968;19.844;2024-02-16T00:39:55;34.97;;;14.40;;
20739;SDS011;10530;49.968;19.844;2024-02-16T00:44:59;32.08;;;12.80;;
20739;SDS011;10530;49.968;19.844;2024-02-16T00:50:06;37.47;;;12.90;;
20739;SDS011;10530;49.968;19.844;2024-02-16T00:55:11;38.80;;;14.60;;
20739;SDS011;10530;49.968;19.844;2024-02-16T01:00:15;33.97;;;12.85;;
20739;SDS011;10530;49.968;19.844;2024-02-16T01:05:20;33.80;;;13.83;;
20739;SDS011;10530;49.968;19.844;2024-02-16T01:10:25;36.70;;;13.43;;
20739;SDS011;10530;49.968;19.844;2024-02-16T01:15:28;30.08;;;12.15;;
20739;SDS011;10530;49.968;19.844;2024-02-16T01:20:32;31.80;;;12.87;;
20739;SDS011;10530;49.968;19.844;2024-02-16T01:25:35;38.08;;;13.25;;
20739;SDS011;10530;49.968;19.844;2024-02-16T01:30:38;31.03;;;12.37;;
20739;SDS011;10530;49.968;19.844;2024-02-16T01:35:42;32.30;;;13.15;;
20739;SDS011;10530;49.968;19.844;2024-02-16T01:40:45;32.33;;;14.30;;
20739;SDS011;10530;49.968;19.844;2024-02-16T01:45:48;33.53;;;12.37;;
20739;SDS011;10530;49.968;19.844;2024-02-16T01:50:51;27.73;;;11.82;;
20739;SDS011;10530;49.968;19.844;2024-02-16T01:55:54;35.97;;;12.77;;
20739;SDS011;10530;49.968;19.844;2024-02-16T02:00:58;32.08;;;12.73;;
20739;SDS011;10530;49.968;19.844;2024-02-16T02:06:01;27.67;;;11.63;;
20739;SDS011;10530;49.968;19.844;2024-02-16T02:11:04;32.53;;;13.00;;
20739;SDS011;10530;49.968;19.844;2024-02-16T02:16:08;39.03;;;14.40;;
20739;SDS011;10530;49.968;19.844;2024-02-16T02:21:12;36.77;;;12.93;;
20739;SDS011;10530;49.968;19.844;2024-02-16T02:26:16;32.58;;;12.90;;
20739;SDS011;10530;49.968;19.844;2024-02-16T02:31:19;30.65;;;12.07;;
20739;SDS011;10530;49.968;19.844;2024-02-16T02:36:22;30.03;;;11.40;;
20739;SDS011;10530;49.968;19.844;2024-02-16T02:41:26;27.73;;;11.20;;
20739;SDS011;10530;49.968;19.844;2024-02-16T02:46:29;32.20;;;11.77;;
20739;SDS011;10530;49.968;19.844;2024-02-16T02:51:32;29.67;;;10.57;;
20739;SDS011;10530;49.968;19.844;2024-02-16T02:56:35;33.00;;;11.38;;
20739;SDS011;10530;49.968;19.844;2024-02-16T03:01:38;27.77;;;10.57;;
20739;SDS011;10530;49.968;19.844;2024-02-16T03:06:42;21.98;;;10.77;;
20739;SDS011;10530;49.968;19.844;2024-02-16T03:11:46;28.47;;;11.63;;
20739;SDS011;10530;49.968;19.844;2024-02-16T03:16:49;24.88;;;11.77;;
20739;SDS011;10530;49.968;19.844;2024-02-16T03:21:52;22.58;;;10.27;;
20739;SDS011;10530;49.968;19.844;2024-02-16T03:26:55;27.27;;;9.87;;
20739;SDS011;10530;49.968;19.844;2024-02-16T03:31:58;27.58;;;11.30;;
20739;SDS011;10530;49.968;19.844;2024-02-16T03:37:01;30.10;;;10.13;;
20739;SDS011;10530;49.968;19.844;2024-02-16T03:42:04;27.02;;;10.63;;
20739;SDS011;10530;49.968;19.844;2024-02-16T03:47:07;26.08;;;11.43;;
20739;SDS011;10530;49.968;19.844;2024-02-16T03:52:10;25.53;;;9.30;;
20739;SDS011;10530;49.968;19.844;2024-02-16T03:57:15;24.40;;;10.23;;
20739;SDS011;10530;49.968;19.844;2024-02-16T04:02:18;22.17;;;9.97;;
20739;SDS011;10530;49.968;19.844;2024-02-16T04:07:22;27.10;;;11.65;;
20739;SDS011;10530;49.968;19.844;2024-02-16T04:12:25;20.25;;;9.98;;
20739;SDS011;10530;49.968;19.844;2024-02-16T04:17:28;25.73;;;9.87;;
20739;SDS011;10530;49.968;19.844;2024-02-16T04:22:32;28.83;;;10.07;;
20739;SDS011;10530;49.968;19.844;2024-02-16T04:27:39;27.53;;;9.33;;
20739;SDS011;10530;49.968;19.844;2024-02-16T04:32:42;26.63;;;10.48;;
20739;SDS011;10530;49.968;19.844;2024-02-16T04:37:46;26.35;;;10.50;;
20739;SDS011;10530;49.968;19.844;2024-02-16T04:42:49;26.80;;;9.53;;
20739;SDS011;10530;49.968;19.844;2024-02-16T04:47:52;20.15;;;8.52;;
20739;SDS011;10530;49.968;19.844;2024-02-16T04:52:55;31.93;;;11.53;;
20739;SDS011;10530;49.968;19.844;2024-02-16T04:57:58;26.25;;;8.93;;
20739;SDS011;10530;49.968;19.844;2024-02-16T05:03:01;19.05;;;8.82;;
20739;SDS011;10530;49.968;19.844;2024-02-16T05:08:05;35.90;;;11.03;;
20739;SDS011;10530;49.968;19.844;2024-02-16T05:13:08;25.17;;;10.23;;
20739;SDS011;10530;49.968;19.844;2024-02-16T05:18:11;20.00;;;9.27;;
20739;SDS011;10530;49.968;19.844;2024-02-16T05:23:15;25.42;;;9.68;;
20739;SDS011;10530;49.968;19.844;2024-02-16T05:28:18;24.70;;;11.15;;
20739;SDS011;10530;49.968;19.844;2024-02-16T05:33:21;26.90;;;10.40;;
20739;SDS011;10530;49.968;19.844;2024-02-16T05:38:24;23.13;;;10.25;;
20739;SDS011;10530;49.968;19.844;2024-02-16T05:43:42;37.57;;;11.83;;
20739;SDS011;10530;49.968;19.844;2024-02-16T05:48:46;20.90;;;9.15;;
20739;SDS011;10530;49.968;19.844;2024-02-16T05:53:49;24.70;;;9.10;;
20739;SDS011;10530;49.968;19.844;2024-02-16T05:58:53;21.80;;;9.20;;
20739;SDS011;10530;49.968;19.844;2024-02-16T06:03:56;25.23;;;10.23;;
20739;SDS011;10530;49.968;19.844;2024-02-16T06:08:59;24.53;;;10.43;;
20739;SDS011;10530;49.968;19.844;2024-02-16T06:14:02;26.55;;;10.38;;
20739;SDS011;10530;49.968;19.844;2024-02-16T06:19:05;31.02;;;10.68;;
20739;SDS011;10530;49.968;19.844;2024-02-16T06:24:10;28.10;;;10.47;;
20739;SDS011;10530;49.968;19.844;2024-02-16T06:29:13;22.98;;;9.98;;
20739;SDS011;10530;49.968;19.844;2024-02-16T06:34:17;20.70;;;10.13;;
20739;SDS011;10530;49.968;19.844;2024-02-16T06:39:20;28.10;;;10.25;;
20739;SDS011;10530;49.968;19.844;2024-02-16T06:44:23;33.10;;;13.27;;
20739;SDS011;10530;49.968;19.844;2024-02-16T06:49:26;40.57;;;14.00;;
20739;SDS011;10530;49.968;19.844;2024-02-16T06:54:29;34.88;;;13.77;;
20739;SDS011;10530;49.968;19.844;2024-02-16T06:59:32;31.60;;;13.10;;
20739;SDS011;10530;49.968;19.844;2024-02-16T07:04:35;31.30;;;11.88;;
20739;SDS011;10530;49.968;19.844;2024-02-16T07:09:38;29.58;;;13.90;;
20739;SDS011;10530;49.968;19.844;2024-02-16T07:14:41;33.70;;;13.47;;
20739;SDS011;10530;49.968;19.844;2024-02-16T07:19:45;36.53;;;14.90;;
20739;SDS011;10530;49.968;19.844;2024-02-16T07:24:49;42.30;;;17.77;;
20739;SDS011;10530;49.968;19.844;2024-02-16T07:29:52;43.10;;;16.27;;
20739;SDS011;10530;49.968;19.844;2024-02-16T07:34:55;50.15;;;17.30;;
20739;SDS011;10530;49.968;19.844;2024-02-16T07:39:58;44.00;;;18.77;;
20739;SDS011;10530;49.968;19.844;2024-02-16T07:45:01;54.35;;;20.20;;
20739;SDS011;10530;49.968;19.844;2024-02-16T07:50:07;49.17;;;19.73;;
20739;SDS011;10530;49.968;19.844;2024-02-16T07:55:10;42.45;;;18.55;;
20739;SDS011;10530;49.968;19.844;2024-02-16T08:00:13;43.10;;;18.23;;
20739;SDS011;10530;49.968;19.844;2024-02-16T08:05:18;50.70;;;19.83;;
20739;SDS011;10530;49.968;19.844;2024-02-16T08:10:21;52.90;;;22.48;;
20739;SDS011;10530;49.968;19.844;2024-02-16T08:15:25;50.13;;;21.80;;
20739;SDS011;10530;49.968;19.844;2024-02-16T08:20:28;50.05;;;20.13;;
20739;SDS011;10530;49.968;19.844;2024-02-16T08:25:31;47.63;;;20.67;;
20739;SDS011;10530;49.968;19.844;2024-02-16T08:30:35;57.27;;;21.20;;
20739;SDS011;10530;49.968;19.844;2024-02-16T08:35:43;51.05;;;21.48;;
20739;SDS011;10530;49.968;19.844;2024-02-16T08:40:46;50.93;;;21.27;;
20739;SDS011;10530;49.968;19.844;2024-02-16T08:45:50;46.83;;;19.67;;
20739;SDS011;10530;49.968;19.844;2024-02-16T08:50:53;44.53;;;19.95;;
20739;SDS011;10530;49.968;19.844;2024-02-16T08:55:56;48.47;;;19.90;;
20739;SDS011;10530;49.968;19.844;2024-02-16T09:00:59;42.03;;;19.58;;
20739;SDS011;10530;49.968;19.844;2024-02-16T09:06:03;41.37;;;17.80;;
20739;SDS011;10530;49.968;19.844;2024-02-16T09:11:06;43.38;;;20.85;;
20739;SDS011;10530;49.968;19.844;2024-02-16T09:16:09;41.85;;;18.50;;
20739;SDS011;10530;49.968;19.844;2024-02-16T09:21:12;44.67;;;20.43;;
20739;SDS011;10530;49.968;19.844;2024-02-16T09:26:15;49.40;;;22.45;;
20739;SDS011;10530;49.968;19.844;2024-02-16T09:31:18;47.00;;;22.47;;
20739;SDS011;10530;49.968;19.844;2024-02-16T09:36:21;45.08;;;22.33;;
20739;SDS011;10530;49.968;19.844;2024-02-16T09:41:25;42.47;;;21.48;;
20739;SDS011;10530;49.968;19.844;2024-02-16T09:46:30;37.03;;;19.23;;
20739;SDS011;10530;49.968;19.844;2024-02-16T09:51:37;40.80;;;20.15;;
20739;SDS011;10530;49.968;19.844;2024-02-16T09:56:41;37.07;;;18.77;;
20739;SDS011;10530;49.968;19.844;2024-02-16T10:01:44;36.35;;;17.40;;
20739;SDS011;10530;49.968;19.844;2024-02-16T10:06:48;34.60;;;18.02;;
20739;SDS011;10530;49.968;19.844;2024-02-16T10:11:52;33.73;;;14.77;;
20739;SDS011;10530;49.968;19.844;2024-02-16T10:16:59;34.70;;;16.35;;
20739;SDS011;10530;49.968;19.844;2024-02-16T10:22:11;31.13;;;14.57;;
20739;SDS011;10530;49.968;19.844;2024-02-16T10:27:16;28.17;;;14.55;;
20739;SDS011;10530;49.968;19.844;2024-02-16T10:32:20;29.13;;;14.18;;
20739;SDS011;10530;49.968;19.844;2024-02-16T10:37:23;27.07;;;13.20;;
20739;SDS011;10530;49.968;19.844;2024-02-16T10:42:27;23.15;;;11.93;;
20739;SDS011;10530;49.968;19.844;2024-02-16T10:47:30;25.70;;;12.07;;
20739;SDS011;10530;49.968;19.844;2024-02-16T10:52:33;23.40;;;11.45;;
20739;SDS011;10530;49.968;19.844;2024-02-16T10:57:38;20.25;;;10.13;;
20739;SDS011;10530;49.968;19.844;2024-02-16T11:02:52;18.87;;;10.37;;
20739;SDS011;10530;49.968;19.844;2024-02-16T11:08:04;19.30;;;9.52;;
20739;SDS011;10530;49.968;19.844;2024-02-16T11:13:08;16.43;;;7.30;;
20739;SDS011;10530;49.968;19.844;2024-02-16T11:18:11;15.20;;;7.47;;
20739;SDS011;10530;49.968;19.844;2024-02-16T11:23:14;13.15;;;7.03;;
20739;SDS011;10530;49.968;19.844;2024-02-16T11:28:19;13.23;;;6.20;;
20739;SDS011;10530;49.968;19.844;2024-02-16T11:33:22;12.57;;;6.53;;
20739;SDS011;10530;49.968;19.844;2024-02-16T11:38:26;8.00;;;3.70;;
20739;SDS011;10530;49.968;19.844;2024-02-16T11:43:29;4.70;;;2.30;;
20739;SDS011;10530;49.968;19.844;2024-02-16T11:48:34;10.00;;;5.10;;
20739;SDS011;10530;49.968;19.844;2024-02-16T11:53:37;6.63;;;2.90;;
20739;SDS011;10530;49.968;19.844;2024-02-16T11:58:41;4.82;;;2.00;;
20739;SDS011;10530;49.968;19.844;2024-02-16T12:03:44;10.87;;;5.93;;
20739;SDS011;10530;49.968;19.844;2024-02-16T12:08:49;10.82;;;6.32;;
20739;SDS011;10530;49.968;19.844;2024-02-16T12:13:54;14.82;;;6.90;;
20739;SDS011;10530;49.968;19.844;2024-02-16T12:19:04;6.27;;;3.13;;
20739;SDS011;10530;49.968;19.844;2024-02-16T12:24:07;5.50;;;2.70;;
20739;SDS011;10530;49.968;19.844;2024-02-16T12:29:11;11.20;;;5.83;;
20739;SDS011;10530;49.968;19.844;2024-02-16T12:34:15;9.48;;;5.70;;
20739;SDS011;10530;49.968;19.844;2024-02-16T12:39:18;16.83;;;7.28;;
20739;SDS011;10530;49.968;19.844;2024-02-16T12:44:21;17.33;;;8.00;;
20739;SDS011;10530;49.968;19.844;2024-02-16T12:49:24;13.70;;;8.00;;
20739;SDS011;10530;49.968;19.844;2024-02-16T12:54:28;15.90;;;7.77;;
20739;SDS011;10530;49.968;19.844;2024-02-16T12:59:31;14.68;;;7.45;;
20739;SDS011;10530;49.968;19.844;2024-02-16T13:04:34;13.55;;;7.50;;
20739;SDS011;10530;49.968;19.844;2024-02-16T13:09:37;13.77;;;7.83;;
20739;SDS011;10530;49.968;19.844;2024-02-16T13:14:41;13.98;;;7.18;;
20739;SDS011;10530;49.968;19.844;2024-02-16T13:19:44;12.40;;;7.20;;
20739;SDS011;10530;49.968;19.844;2024-02-16T13:24:47;16.00;;;7.28;;
20739;SDS011;10530;49.968;19.844;2024-02-16T13:29:50;16.85;;;7.03;;
20739;SDS011;10530;49.968;19.844;2024-02-16T13:34:54;15.07;;;6.70;;
20739;SDS011;10530;49.968;19.844;2024-02-16T13:39:57;12.38;;;6.13;;
20739;SDS011;10530;49.968;19.844;2024-02-16T13:45:00;13.50;;;5.53;;
20739;SDS011;10530;49.968;19.844;2024-02-16T13:50:03;12.55;;;5.10;;
20739;SDS011;10530;49.968;19.844;2024-02-16T13:55:06;10.65;;;5.00;;
20739;SDS011;10530;49.968;19.844;2024-02-16T14:00:10;11.33;;;4.47;;
20739;SDS011;10530;49.968;19.844;2024-02-16T14:05:13;10.75;;;4.80;;
20739;SDS011;10530;49.968;19.844;2024-02-16T14:10:17;10.23;;;4.50;;
20739;SDS011;10530;49.968;19.844;2024-02-16T14:15:20;16.40;;;5.18;;
20739;SDS011;10530;49.968;19.844;2024-02-16T14:20:23;14.02;;;4.75;;
20739;SDS011;10530;49.968;19.844;2024-02-16T14:25:26;11.57;;;4.33;;
20739;SDS011;10530;49.968;19.844;2024-02-16T14:30:30;9.00;;;4.40;;
20739;SDS011;10530;49.968;19.844;2024-02-16T14:35:34;10.27;;;3.93;;
20739;SDS011;10530;49.968;19.844;2024-02-16T14:40:39;7.97;;;3.80;;
20739;SDS011;10530;49.968;19.844;2024-02-16T14:45:42;7.82;;;3.88;;
20739;SDS011;10530;49.968;19.844;2024-02-16T14:50:45;8.30;;;3.87;;
20739;SDS011;10530;49.968;19.844;2024-02-16T14:55:48;10.32;;;4.05;;
20739;SDS011;10530;49.968;19.844;2024-02-16T15:00:55;10.13;;;3.90;;
20739;SDS011;10530;49.968;19.844;2024-02-16T15:05:59;9.27;;;3.88;;
20739;SDS011;10530;49.968;19.844;2024-02-16T15:11:02;9.32;;;3.97;;
20739;SDS011;10530;49.968;19.844;2024-02-16T15:16:06;7.80;;;3.77;;
20739;SDS011;10530;49.968;19.844;2024-02-16T15:21:10;11.07;;;4.00;;
20739;SDS011;10530;49.968;19.844;2024-02-16T15:26:14;9.60;;;4.13;;
20739;SDS011;10530;49.968;19.844;2024-02-16T15:31:17;11.52;;;4.60;;
20739;SDS011;10530;49.968;19.844;2024-02-16T15:36:20;9.35;;;4.15;;
20739;SDS011;10530;49.968;19.844;2024-02-16T15:41:24;10.60;;;4.00;;
20739;SDS011;10530;49.968;19.844;2024-02-16T15:46:27;9.63;;;4.32;;
20739;SDS011;10530;49.968;19.844;2024-02-16T15:51:30;9.90;;;4.60;;
20739;SDS011;10530;49.968;19.844;2024-02-16T15:56:33;8.98;;;3.85;;
20739;SDS011;10530;49.968;19.844;2024-02-16T16:01:37;9.35;;;4.00;;
20739;SDS011;10530;49.968;19.844;2024-02-16T16:06:40;13.50;;;4.70;;
20739;SDS011;10530;49.968;19.844;2024-02-16T16:11:43;12.82;;;5.18;;
20739;SDS011;10530;49.968;19.844;2024-02-16T16:16:46;13.93;;;5.60;;
20739;SDS011;10530;49.968;19.844;2024-02-16T16:21:55;17.20;;;6.25;;
20739;SDS011;10530;49.968;19.844;2024-02-16T16:26:58;12.75;;;5.45;;
20739;SDS011;10530;49.968;19.844;2024-02-16T16:32:01;12.77;;;5.67;;
20739;SDS011;10530;49.968;19.844;2024-02-16T16:37:07;12.10;;;5.00;;
20739;SDS011;10530;49.968;19.844;2024-02-16T16:42:11;16.90;;;6.90;;
20739;SDS011;10530;49.968;19.844;2024-02-16T16:47:15;13.73;;;5.95;;
20739;SDS011;10530;49.968;19.844;2024-02-16T16:52:18;21.45;;;7.28;;
20739;SDS011;10530;49.968;19.844;2024-02-16T16:57:22;20.47;;;7.80;;
20739;SDS011;10530;49.968;19.844;2024-02-16T17:02:25;19.92;;;8.07;;
20739;SDS011;10530;49.968;19.844;2024-02-16T17:07:28;29.87;;;10.37;;
20739;SDS011;10530;49.968;19.844;2024-02-16T17:12:34;37.15;;;11.70;;
20739;SDS011;10530;49.968;19.844;2024-02-16T17:17:37;39.22;;;11.48;;
20739;SDS011;10530;49.968;19.844;2024-02-16T17:22:42;42.10;;;12.37;;
20739;SDS011;10530;49.968;19.844;2024-02-16T17:27:46;36.92;;;12.00;;
20739;SDS011;10530;49.968;19.844;2024-02-16T17:32:50;33.43;;;12.00;;
20739;SDS011;10530;49.968;19.844;2024-02-16T17:37:54;20.50;;;8.50;;
20739;SDS011;10530;49.968;19.844;2024-02-16T17:42:57;31.15;;;11.23;;
20739;SDS011;10530;49.968;19.844;2024-02-16T17:48:01;25.90;;;11.23;;
20739;SDS011;10530;49.968;19.844;2024-02-16T17:53:04;25.40;;;10.93;;
20739;SDS011;10530;49.968;19.844;2024-02-16T17:58:07;27.40;;;12.00;;
20739;SDS011;10530;49.968;19.844;2024-02-16T18:03:10;29.08;;;10.80;;
20739;SDS011;10530;49.968;19.844;2024-02-16T18:08:14;24.98;;;10.10;;
20739;SDS011;10530;49.968;19.844;2024-02-16T18:13:17;23.83;;;9.47;;
20739;SDS011;10530;49.968;19.844;2024-02-16T18:18:23;19.92;;;8.88;;
20739;SDS011;10530;49.968;19.844;2024-02-16T18:23:28;24.73;;;9.47;;
20739;SDS011;10530;49.968;19.844;2024-02-16T18:28:32;26.40;;;9.13;;
20739;SDS011;10530;49.968;19.844;2024-02-16T18:33:46;25.75;;;9.68;;
20739;SDS011;10530;49.968;19.844;2024-02-16T18:38:49;27.83;;;11.13;;
20739;SDS011;10530;49.968;19.844;2024-02-16T18:43:53;25.25;;;9.95;;
20739;SDS011;10530;49.968;19.844;2024-02-16T18:48:56;30.20;;;11.27;;
20739;SDS011;10530;49.968;19.844;2024-02-16T18:53:59;31.35;;;11.68;;
20739;SDS011;10530;49.968;19.844;2024-02-16T18:59:06;24.35;;;10.30;;
20739;SDS011;10530;49.968;19.844;2024-02-16T19:04:10;22.07;;;8.43;;
20739;SDS011;10530;49.968;19.844;2024-02-16T19:09:13;22.17;;;8.48;;
20739;SDS011;10530;49.968;19.844;2024-02-16T19:14:17;18.43;;;7.23;;
20739;SDS011;10530;49.968;19.844;2024-02-16T19:19:21;16.88;;;7.20;;
20739;SDS011;10530;49.968;19.844;2024-02-16T19:24:24;20.25;;;7.57;;
20739;SDS011;10530;49.968;19.844;2024-02-16T19:29:40;18.47;;;6.43;;
20739;SDS011;10530;49.968;19.844;2024-02-16T19:34:43;18.08;;;6.75;;
20739;SDS011;10530;49.968;19.844;2024-02-16T19:39:46;18.70;;;6.70;;
20739;SDS011;10530;49.968;19.844;2024-02-16T19:44:49;17.85;;;6.60;;
20739;SDS011;10530;49.968;19.844;2024-02-16T19:49:52;19.85;;;7.47;;
20739;SDS011;10530;49.968;19.844;2024-02-16T19:54:56;18.30;;;6.80;;
20739;SDS011;10530;49.968;19.844;2024-02-16T20:00:00;17.75;;;7.07;;
20739;SDS011;10530;49.968;19.844;2024-02-16T20:05:07;15.97;;;6.60;;
20739;SDS011;10530;49.968;19.844;2024-02-16T20:10:10;19.20;;;6.70;;
20739;SDS011;10530;49.968;19.844;2024-02-16T20:15:13;20.48;;;5.95;;
20739;SDS011;10530;49.968;19.844;2024-02-16T20:20:17;15.50;;;6.03;;
20739;SDS011;10530;49.968;19.844;2024-02-16T20:25:25;15.73;;;5.65;;
20739;SDS011;10530;49.968;19.844;2024-02-16T20:30:28;16.33;;;6.03;;
20739;SDS011;10530;49.968;19.844;2024-02-16T20:35:32;17.52;;;6.70;;
20739;SDS011;10530;49.968;19.844;2024-02-16T20:40:35;17.25;;;6.43;;
20739;SDS011;10530;49.968;19.844;2024-02-16T20:45:38;15.33;;;6.27;;
20739;SDS011;10530;49.968;19.844;2024-02-16T20:50:41;17.33;;;6.65;;
20739;SDS011;10530;49.968;19.844;2024-02-16T20:55:44;18.60;;;6.57;;
20739;SDS011;10530;49.968;19.844;2024-02-16T21:00:47;17.55;;;6.75;;
20739;SDS011;10530;49.968;19.844;2024-02-16T21:05:51;21.38;;;7.30;;
20739;SDS011;10530;49.968;19.844;2024-02-16T21:10:54;18.70;;;6.60;;
20739;SDS011;10530;49.968;19.844;2024-02-16T21:15:57;16.27;;;6.25;;
20739;SDS011;10530;49.968;19.844;2024-02-16T21:21:00;13.50;;;6.00;;
20739;SDS011;10530;49.968;19.844;2024-02-16T21:26:05;17.85;;;6.38;;
20739;SDS011;10530;49.968;19.844;2024-02-16T21:31:08;21.92;;;6.45;;
20739;SDS011;10530;49.968;19.844;2024-02-16T21:36:11;16.30;;;6.37;;
20739;SDS011;10530;49.968;19.844;2024-02-16T21:41:16;13.65;;;5.00;;
20739;SDS011;10530;49.968;19.844;2024-02-16T21:51:31;14.20;;;5.80;;
20739;SDS011;10530;49.968;19.844;2024-02-16T21:56:37;12.50;;;4.47;;
20739;SDS011;10530;49.968;19.844;2024-02-16T22:01:40;12.60;;;4.83;;
20739;SDS011;10530;49.968;19.844;2024-02-16T22:06:43;15.02;;;5.60;;
20739;SDS011;10530;49.968;19.844;2024-02-16T22:11:47;13.63;;;5.47;;
20739;SDS011;10530;49.968;19.844;2024-02-16T22:16:50;15.07;;;6.00;;
20739;SDS011;10530;49.968;19.844;2024-02-16T22:21:55;16.30;;;5.63;;
20739;SDS011;10530;49.968;19.844;2024-02-16T22:26:58;19.23;;;6.40;;
20739;SDS011;10530;49.968;19.844;2024-02-16T22:32:02;17.67;;;6.85;;
20739;SDS011;10530;49.968;19.844;2024-02-16T22:37:18;23.40;;;8.03;;
20739;SDS011;10530;49.968;19.844;2024-02-16T22:42:21;21.45;;;6.90;;
20739;SDS011;10530;49.968;19.844;2024-02-16T22:47:24;15.73;;;5.95;;
20739;SDS011;10530;49.968;19.844;2024-02-16T22:52:27;15.87;;;6.47;;
20739;SDS011;10530;49.968;19.844;2024-02-16T22:57:30;22.10;;;7.15;;
20739;SDS011;10530;49.968;19.844;2024-02-16T23:02:33;18.07;;;6.77;;
20739;SDS011;10530;49.968;19.844;2024-02-16T23:07:37;18.77;;;6.80;;
20739;SDS011;10530;49.968;19.844;2024-02-16T23:12:40;16.55;;;6.90;;
20739;SDS011;10530;49.968;19.844;2024-02-16T23:17:52;16.57;;;6.23;;
20739;SDS011;10530;49.968;19.844;2024-02-16T23:22:59;18.88;;;6.45;;
20739;SDS011;10530;49.968;19.844;2024-02-16T23:28:03;14.47;;;5.43;;
20739;SDS011;10530;49.968;19.844;2024-02-16T23:33:06;15.75;;;6.82;;
20739;SDS011;10530;49.968;19.844;2024-02-16T23:38:11;23.70;;;7.45;;
20739;SDS011;10530;49.968;19.844;2024-02-16T23:43:16;20.33;;;7.60;;
20739;SDS011;10530;49.968;19.844;2024-02-16T23:48:19;18.38;;;7.22;;
20739;SDS011;10530;49.968;19.844;2024-02-16T23:53:22;26.17;;;7.63;;
20739;SDS011;10530;49.968;19.844;2024-02-16T23:58:25;21.92;;;7.97;;
